sensor_id;sensor_type;location;lat;lon;timestamp;temperature;humidity
44833;DHT22;30569;51.252;9.830;2022-11-03T00:01:34;5.90;99.90
44833;DHT22;30569;51.252;9.830;2022-11-03T00:04:01;6.40;99.90
44833;DHT22;30569;51.252;9.830;2022-11-03T00:06:27;6.30;99.90
44833;DHT22;30569;51.252;9.830;2022-11-03T00:08:52;6.60;99.90
44833;DHT22;30569;51.252;9.830;2022-11-03T00:11:21;6.70;99.90
44833;DHT22;30569;51.252;9.830;2022-11-03T00:13:47;7.00;99.90
44833;DHT22;30569;51.252;9.830;2022-11-03T00:16:12;7.20;99.90
44833;DHT22;30569;51.252;9.830;2022-11-03T00:18:38;7.30;99.90
44833;DHT22;30569;51.252;9.830;2022-11-03T00:21:09;7.30;99.90
44833;DHT22;30569;51.252;9.830;2022-11-03T00:23:39;7.30;99.90
44833;DHT22;30569;51.252;9.830;2022-11-03T00:26:09;7.40;99.90
44833;DHT22;30569;51.252;9.830;2022-11-03T00:31:09;7.40;99.90
44833;DHT22;30569;51.252;9.830;2022-11-03T00:33:35;7.20;99.90
44833;DHT22;30569;51.252;9.830;2022-11-03T00:36:01;7.10;99.90
44833;DHT22;30569;51.252;9.830;2022-11-03T00:38:28;7.00;99.90
44833;DHT22;30569;51.252;9.830;2022-11-03T00:41:01;6.80;99.90
44833;DHT22;30569;51.252;9.830;2022-11-03T00:43:28;6.60;99.90
44833;DHT22;30569;51.252;9.830;2022-11-03T00:45:54;6.50;99.90
44833;DHT22;30569;51.252;9.830;2022-11-03T00:48:21;6.50;99.90
44833;DHT22;30569;51.252;9.830;2022-11-03T00:53:26;5.70;99.90
44833;DHT22;30569;51.252;9.830;2022-11-03T01:00:43;5.20;99.90
44833;DHT22;30569;51.252;9.830;2022-11-03T01:03:09;5.10;99.90
44833;DHT22;30569;51.252;9.830;2022-11-03T01:05:42;5.60;99.90
44833;DHT22;30569;51.252;9.830;2022-11-03T01:08:33;5.70;99.90
44833;DHT22;30569;51.252;9.830;2022-11-03T01:11:15;5.60;99.90
44833;DHT22;30569;51.252;9.830;2022-11-03T01:14:00;5.00;99.90
44833;DHT22;30569;51.252;9.830;2022-11-03T01:16:26;4.90;99.90
44833;DHT22;30569;51.252;9.830;2022-11-03T01:18:53;4.90;99.90
44833;DHT22;30569;51.252;9.830;2022-11-03T01:21:19;5.10;99.90
44833;DHT22;30569;51.252;9.830;2022-11-03T01:23:45;5.20;99.90
44833;DHT22;30569;51.252;9.830;2022-11-03T01:26:12;5.40;99.90
44833;DHT22;30569;51.252;9.830;2022-11-03T01:28:39;5.30;99.90
44833;DHT22;30569;51.252;9.830;2022-11-03T01:31:07;5.10;99.90
44833;DHT22;30569;51.252;9.830;2022-11-03T01:43:19;5.70;99.90
44833;DHT22;30569;51.252;9.830;2022-11-03T01:45:47;5.90;99.90
44833;DHT22;30569;51.252;9.830;2022-11-03T01:48:14;5.80;99.90
44833;DHT22;30569;51.252;9.830;2022-11-03T01:50:42;6.00;99.90
44833;DHT22;30569;51.252;9.830;2022-11-03T01:53:12;6.10;99.90
44833;DHT22;30569;51.252;9.830;2022-11-03T01:55:38;6.30;99.90
44833;DHT22;30569;51.252;9.830;2022-11-03T01:58:12;6.30;99.90
44833;DHT22;30569;51.252;9.830;2022-11-03T02:00:44;6.30;99.90
44833;DHT22;30569;51.252;9.830;2022-11-03T02:03:11;6.00;99.90
44833;DHT22;30569;51.252;9.830;2022-11-03T02:05:37;6.20;99.90
44833;DHT22;30569;51.252;9.830;2022-11-03T02:08:10;6.40;99.90
44833;DHT22;30569;51.252;9.830;2022-11-03T02:10:37;6.50;99.90
44833;DHT22;30569;51.252;9.830;2022-11-03T02:13:17;6.20;99.90
44833;DHT22;30569;51.252;9.830;2022-11-03T02:15:45;6.10;99.90
44833;DHT22;30569;51.252;9.830;2022-11-03T02:18:11;6.10;99.90
44833;DHT22;30569;51.252;9.830;2022-11-03T02:20:38;6.20;99.90
44833;DHT22;30569;51.252;9.830;2022-11-03T02:26:09;6.40;99.90
44833;DHT22;30569;51.252;9.830;2022-11-03T02:28:35;6.30;99.90
44833;DHT22;30569;51.252;9.830;2022-11-03T02:36:39;6.30;99.90
44833;DHT22;30569;51.252;9.830;2022-11-03T02:39:28;6.60;99.90
44833;DHT22;30569;51.252;9.830;2022-11-03T02:41:56;6.80;99.90
44833;DHT22;30569;51.252;9.830;2022-11-03T02:44:23;7.10;99.90
44833;DHT22;30569;51.252;9.830;2022-11-03T02:46:55;7.20;99.90
44833;DHT22;30569;51.252;9.830;2022-11-03T02:49:22;7.30;99.90
44833;DHT22;30569;51.252;9.830;2022-11-03T02:51:47;7.30;99.90
44833;DHT22;30569;51.252;9.830;2022-11-03T02:54:19;7.90;99.90
44833;DHT22;30569;51.252;9.830;2022-11-03T02:56:51;7.80;99.90
44833;DHT22;30569;51.252;9.830;2022-11-03T02:59:26;8.00;99.90
44833;DHT22;30569;51.252;9.830;2022-11-03T03:02:01;7.80;99.90
44833;DHT22;30569;51.252;9.830;2022-11-03T03:04:33;7.50;99.90
44833;DHT22;30569;51.252;9.830;2022-11-03T03:07:03;7.40;99.90
44833;DHT22;30569;51.252;9.830;2022-11-03T03:09:36;7.50;99.90
44833;DHT22;30569;51.252;9.830;2022-11-03T03:12:05;7.70;99.90
44833;DHT22;30569;51.252;9.830;2022-11-03T03:14:36;7.50;99.90
44833;DHT22;30569;51.252;9.830;2022-11-03T03:17:14;7.60;99.90
44833;DHT22;30569;51.252;9.830;2022-11-03T03:20:01;7.60;99.90
44833;DHT22;30569;51.252;9.830;2022-11-03T03:22:54;7.60;99.90
44833;DHT22;30569;51.252;9.830;2022-11-03T03:25:28;7.60;99.90
44833;DHT22;30569;51.252;9.830;2022-11-03T03:28:09;7.90;99.90
44833;DHT22;30569;51.252;9.830;2022-11-03T03:30:36;8.00;99.90
44833;DHT22;30569;51.252;9.830;2022-11-03T03:33:04;8.40;99.90
44833;DHT22;30569;51.252;9.830;2022-11-03T03:35:32;8.60;99.90
44833;DHT22;30569;51.252;9.830;2022-11-03T03:38:03;8.80;99.90
44833;DHT22;30569;51.252;9.830;2022-11-03T03:40:33;8.70;99.90
44833;DHT22;30569;51.252;9.830;2022-11-03T03:43:01;8.70;99.90
44833;DHT22;30569;51.252;9.830;2022-11-03T03:45:29;8.30;99.90
44833;DHT22;30569;51.252;9.830;2022-11-03T03:47:56;8.40;99.90
44833;DHT22;30569;51.252;9.830;2022-11-03T03:50:23;8.60;99.90
44833;DHT22;30569;51.252;9.830;2022-11-03T03:52:56;8.70;99.90
44833;DHT22;30569;51.252;9.830;2022-11-03T03:55:38;8.70;99.90
44833;DHT22;30569;51.252;9.830;2022-11-03T03:58:04;8.70;99.90
44833;DHT22;30569;51.252;9.830;2022-11-03T04:00:30;8.70;99.90
44833;DHT22;30569;51.252;9.830;2022-11-03T04:02:57;8.90;99.90
44833;DHT22;30569;51.252;9.830;2022-11-03T04:05:24;8.60;99.90
44833;DHT22;30569;51.252;9.830;2022-11-03T04:07:49;8.50;99.90
44833;DHT22;30569;51.252;9.830;2022-11-03T04:10:18;8.10;99.90
44833;DHT22;30569;51.252;9.830;2022-11-03T04:12:44;8.10;99.90
44833;DHT22;30569;51.252;9.830;2022-11-03T04:15:29;7.80;99.90
44833;DHT22;30569;51.252;9.830;2022-11-03T04:18:16;8.00;99.90
44833;DHT22;30569;51.252;9.830;2022-11-03T04:21:00;8.30;99.90
44833;DHT22;30569;51.252;9.830;2022-11-03T04:23:44;8.30;99.90
44833;DHT22;30569;51.252;9.830;2022-11-03T04:26:19;8.10;99.90
44833;DHT22;30569;51.252;9.830;2022-11-03T04:28:49;8.00;99.90
44833;DHT22;30569;51.252;9.830;2022-11-03T04:31:18;8.10;99.90
44833;DHT22;30569;51.252;9.830;2022-11-03T04:33:45;8.20;99.90
44833;DHT22;30569;51.252;9.830;2022-11-03T04:36:22;8.10;99.90
44833;DHT22;30569;51.252;9.830;2022-11-03T04:38:51;8.00;99.90
44833;DHT22;30569;51.252;9.830;2022-11-03T04:41:24;8.00;99.90
44833;DHT22;30569;51.252;9.830;2022-11-03T04:43:53;8.10;99.90
44833;DHT22;30569;51.252;9.830;2022-11-03T04:46:24;8.00;99.90
44833;DHT22;30569;51.252;9.830;2022-11-03T04:48:52;8.00;99.90
44833;DHT22;30569;51.252;9.830;2022-11-03T04:51:23;7.80;99.90
44833;DHT22;30569;51.252;9.830;2022-11-03T04:53:53;7.80;99.90
44833;DHT22;30569;51.252;9.830;2022-11-03T04:56:21;7.80;99.90
44833;DHT22;30569;51.252;9.830;2022-11-03T05:01:15;7.90;99.90
44833;DHT22;30569;51.252;9.830;2022-11-03T05:03:42;7.60;99.90
44833;DHT22;30569;51.252;9.830;2022-11-03T05:06:20;7.50;99.90
44833;DHT22;30569;51.252;9.830;2022-11-03T05:08:50;7.70;99.90
44833;DHT22;30569;51.252;9.830;2022-11-03T05:11:21;7.90;99.90
44833;DHT22;30569;51.252;9.830;2022-11-03T05:13:51;7.70;99.90
44833;DHT22;30569;51.252;9.830;2022-11-03T05:16:18;7.80;99.90
44833;DHT22;30569;51.252;9.830;2022-11-03T05:18:45;7.80;99.90
44833;DHT22;30569;51.252;9.830;2022-11-03T05:21:17;8.00;99.90
44833;DHT22;30569;51.252;9.830;2022-11-03T05:23:53;7.70;99.90
44833;DHT22;30569;51.252;9.830;2022-11-03T05:26:23;7.70;99.90
44833;DHT22;30569;51.252;9.830;2022-11-03T05:28:54;7.80;99.90
44833;DHT22;30569;51.252;9.830;2022-11-03T05:31:28;8.00;99.90
44833;DHT22;30569;51.252;9.830;2022-11-03T05:34:00;8.30;99.90
44833;DHT22;30569;51.252;9.830;2022-11-03T05:36:28;8.30;99.90
44833;DHT22;30569;51.252;9.830;2022-11-03T05:38:58;8.20;99.90
44833;DHT22;30569;51.252;9.830;2022-11-03T05:41:27;8.20;99.90
44833;DHT22;30569;51.252;9.830;2022-11-03T05:44:03;8.30;99.90
44833;DHT22;30569;51.252;9.830;2022-11-03T05:46:34;8.30;99.90
44833;DHT22;30569;51.252;9.830;2022-11-03T05:49:01;8.30;99.90
44833;DHT22;30569;51.252;9.830;2022-11-03T05:51:33;8.00;99.90
44833;DHT22;30569;51.252;9.830;2022-11-03T05:54:04;8.40;99.90
44833;DHT22;30569;51.252;9.830;2022-11-03T05:56:32;8.40;99.90
44833;DHT22;30569;51.252;9.830;2022-11-03T05:58:59;8.40;99.90
44833;DHT22;30569;51.252;9.830;2022-11-03T06:01:33;8.50;99.90
44833;DHT22;30569;51.252;9.830;2022-11-03T06:04:19;8.90;99.90
44833;DHT22;30569;51.252;9.830;2022-11-03T06:07:11;8.80;99.90
44833;DHT22;30569;51.252;9.830;2022-11-03T06:09:39;8.80;99.90
44833;DHT22;30569;51.252;9.830;2022-11-03T06:12:05;8.80;99.90
44833;DHT22;30569;51.252;9.830;2022-11-03T06:14:33;8.40;99.90
44833;DHT22;30569;51.252;9.830;2022-11-03T06:19:46;8.40;99.90
44833;DHT22;30569;51.252;9.830;2022-11-03T06:22:19;8.60;99.90
44833;DHT22;30569;51.252;9.830;2022-11-03T06:24:46;8.70;99.90
44833;DHT22;30569;51.252;9.830;2022-11-03T06:27:23;8.50;99.90
44833;DHT22;30569;51.252;9.830;2022-11-03T06:29:52;8.50;99.90
44833;DHT22;30569;51.252;9.830;2022-11-03T06:32:20;8.70;99.90
44833;DHT22;30569;51.252;9.830;2022-11-03T06:34:51;8.90;99.90
44833;DHT22;30569;51.252;9.830;2022-11-03T06:37:24;8.90;99.90
44833;DHT22;30569;51.252;9.830;2022-11-03T06:39:56;8.80;99.90
44833;DHT22;30569;51.252;9.830;2022-11-03T06:42:25;8.90;99.90
44833;DHT22;30569;51.252;9.830;2022-11-03T06:44:51;8.80;99.90
44833;DHT22;30569;51.252;9.830;2022-11-03T06:47:24;8.70;99.90
44833;DHT22;30569;51.252;9.830;2022-11-03T06:49:56;8.80;99.90
44833;DHT22;30569;51.252;9.830;2022-11-03T06:52:31;8.90;99.90
44833;DHT22;30569;51.252;9.830;2022-11-03T06:55:19;8.80;99.90
44833;DHT22;30569;51.252;9.830;2022-11-03T06:57:48;8.80;99.90
44833;DHT22;30569;51.252;9.830;2022-11-03T07:00:26;8.90;99.90
44833;DHT22;30569;51.252;9.830;2022-11-03T07:05:31;8.80;99.90
44833;DHT22;30569;51.252;9.830;2022-11-03T07:08:03;8.90;99.90
44833;DHT22;30569;51.252;9.830;2022-11-03T07:10:30;8.90;99.90
44833;DHT22;30569;51.252;9.830;2022-11-03T07:13:00;9.10;99.90
44833;DHT22;30569;51.252;9.830;2022-11-03T07:15:32;9.10;99.90
44833;DHT22;30569;51.252;9.830;2022-11-03T07:18:00;9.20;99.90
44833;DHT22;30569;51.252;9.830;2022-11-03T07:20:27;9.50;99.90
44833;DHT22;30569;51.252;9.830;2022-11-03T07:22:53;9.70;99.90
44833;DHT22;30569;51.252;9.830;2022-11-03T07:25:21;9.90;99.90
44833;DHT22;30569;51.252;9.830;2022-11-03T07:27:49;10.00;99.90
44833;DHT22;30569;51.252;9.830;2022-11-03T07:30:18;10.20;99.90
44833;DHT22;30569;51.252;9.830;2022-11-03T07:32:45;10.30;99.90
44833;DHT22;30569;51.252;9.830;2022-11-03T07:37:59;10.10;99.90
44833;DHT22;30569;51.252;9.830;2022-11-03T07:40:27;10.20;99.90
44833;DHT22;30569;51.252;9.830;2022-11-03T07:43:07;10.20;99.90
44833;DHT22;30569;51.252;9.830;2022-11-03T07:50:41;10.20;99.90
44833;DHT22;30569;51.252;9.830;2022-11-03T07:53:23;10.60;99.90
44833;DHT22;30569;51.252;9.830;2022-11-03T07:55:52;10.40;99.90
44833;DHT22;30569;51.252;9.830;2022-11-03T07:58:35;10.40;99.90
44833;DHT22;30569;51.252;9.830;2022-11-03T08:01:15;10.30;99.90
44833;DHT22;30569;51.252;9.830;2022-11-03T08:03:45;10.40;99.90
44833;DHT22;30569;51.252;9.830;2022-11-03T08:06:11;10.40;99.90
44833;DHT22;30569;51.252;9.830;2022-11-03T08:08:37;10.20;99.90
44833;DHT22;30569;51.252;9.830;2022-11-03T08:11:03;10.40;99.90
44833;DHT22;30569;51.252;9.830;2022-11-03T08:13:29;10.50;99.90
44833;DHT22;30569;51.252;9.830;2022-11-03T08:15:55;10.20;99.90
44833;DHT22;30569;51.252;9.830;2022-11-03T08:18:21;10.20;99.90
44833;DHT22;30569;51.252;9.830;2022-11-03T08:20:46;10.30;99.90
44833;DHT22;30569;51.252;9.830;2022-11-03T08:23:12;10.20;99.90
44833;DHT22;30569;51.252;9.830;2022-11-03T08:25:37;10.70;99.90
44833;DHT22;30569;51.252;9.830;2022-11-03T08:28:03;10.80;99.90
44833;DHT22;30569;51.252;9.830;2022-11-03T08:30:29;10.60;99.90
44833;DHT22;30569;51.252;9.830;2022-11-03T08:32:55;10.20;99.90
44833;DHT22;30569;51.252;9.830;2022-11-03T08:40:12;10.40;99.90
44833;DHT22;30569;51.252;9.830;2022-11-03T08:45:04;10.40;99.90
44833;DHT22;30569;51.252;9.830;2022-11-03T08:49:56;10.60;99.90
44833;DHT22;30569;51.252;9.830;2022-11-03T08:52:22;10.60;99.90
44833;DHT22;30569;51.252;9.830;2022-11-03T08:59:40;10.00;99.90
44833;DHT22;30569;51.252;9.830;2022-11-03T09:02:05;10.30;99.90
44833;DHT22;30569;51.252;9.830;2022-11-03T09:04:31;10.40;99.90
44833;DHT22;30569;51.252;9.830;2022-11-03T09:06:56;10.70;99.90
44833;DHT22;30569;51.252;9.830;2022-11-03T09:09:22;10.90;99.90
44833;DHT22;30569;51.252;9.830;2022-11-03T09:11:47;10.80;99.90
44833;DHT22;30569;51.252;9.830;2022-11-03T09:14:13;10.80;99.90
44833;DHT22;30569;51.252;9.830;2022-11-03T09:19:05;10.90;99.90
44833;DHT22;30569;51.252;9.830;2022-11-03T09:26:24;11.90;99.90
44833;DHT22;30569;51.252;9.830;2022-11-03T09:31:17;12.10;99.90
44833;DHT22;30569;51.252;9.830;2022-11-03T09:33:43;12.40;99.90
44833;DHT22;30569;51.252;9.830;2022-11-03T09:36:09;12.70;99.90
44833;DHT22;30569;51.252;9.830;2022-11-03T09:38:34;12.40;99.90
44833;DHT22;30569;51.252;9.830;2022-11-03T09:41:01;12.60;99.90
44833;DHT22;30569;51.252;9.830;2022-11-03T09:43:27;12.80;99.90
44833;DHT22;30569;51.252;9.830;2022-11-03T09:45:53;12.60;99.90
44833;DHT22;30569;51.252;9.830;2022-11-03T09:48:18;12.50;99.90
44833;DHT22;30569;51.252;9.830;2022-11-03T09:50:47;12.80;99.90
44833;DHT22;30569;51.252;9.830;2022-11-03T09:53:13;12.80;99.90
44833;DHT22;30569;51.252;9.830;2022-11-03T09:55:39;12.90;99.90
44833;DHT22;30569;51.252;9.830;2022-11-03T09:58:13;12.70;99.90
44833;DHT22;30569;51.252;9.830;2022-11-03T10:00:39;12.80;99.90
44833;DHT22;30569;51.252;9.830;2022-11-03T10:03:05;12.40;99.90
44833;DHT22;30569;51.252;9.830;2022-11-03T10:05:30;12.50;99.90
44833;DHT22;30569;51.252;9.830;2022-11-03T10:08:10;12.90;99.90
44833;DHT22;30569;51.252;9.830;2022-11-03T10:10:39;13.10;99.90
44833;DHT22;30569;51.252;9.830;2022-11-03T10:13:04;15.50;99.90
44833;DHT22;30569;51.252;9.830;2022-11-03T10:15:34;13.20;99.90
44833;DHT22;30569;51.252;9.830;2022-11-03T10:20:27;12.90;99.90
44833;DHT22;30569;51.252;9.830;2022-11-03T10:25:40;12.20;99.90
44833;DHT22;30569;51.252;9.830;2022-11-03T10:28:23;11.90;99.90
44833;DHT22;30569;51.252;9.830;2022-11-03T10:31:00;11.90;99.90
44833;DHT22;30569;51.252;9.830;2022-11-03T10:33:30;12.20;99.90
44833;DHT22;30569;51.252;9.830;2022-11-03T10:35:57;12.40;99.90
44833;DHT22;30569;51.252;9.830;2022-11-03T10:38:33;12.30;99.90
44833;DHT22;30569;51.252;9.830;2022-11-03T10:43:36;12.70;99.90
44833;DHT22;30569;51.252;9.830;2022-11-03T10:46:22;12.70;99.90
44833;DHT22;30569;51.252;9.830;2022-11-03T10:49:12;12.80;99.90
44833;DHT22;30569;51.252;9.830;2022-11-03T10:51:39;13.20;99.90
44833;DHT22;30569;51.252;9.830;2022-11-03T10:54:10;13.10;99.90
44833;DHT22;30569;51.252;9.830;2022-11-03T10:56:37;13.20;99.90
44833;DHT22;30569;51.252;9.830;2022-11-03T10:59:03;13.30;99.90
44833;DHT22;30569;51.252;9.830;2022-11-03T11:01:29;13.00;99.90
44833;DHT22;30569;51.252;9.830;2022-11-03T11:03:55;12.90;99.90
44833;DHT22;30569;51.252;9.830;2022-11-03T11:06:28;12.90;99.90
44833;DHT22;30569;51.252;9.830;2022-11-03T11:09:00;12.70;99.90
44833;DHT22;30569;51.252;9.830;2022-11-03T11:11:27;12.90;99.90
44833;DHT22;30569;51.252;9.830;2022-11-03T11:16:57;13.20;99.90
44833;DHT22;30569;51.252;9.830;2022-11-03T11:19:24;13.20;99.90
44833;DHT22;30569;51.252;9.830;2022-11-03T11:37:49;14.50;99.90
44833;DHT22;30569;51.252;9.830;2022-11-03T11:48:31;13.60;99.90
44833;DHT22;30569;51.252;9.830;2022-11-03T11:50:57;13.40;99.90
44833;DHT22;30569;51.252;9.830;2022-11-03T11:53:23;13.70;99.90
44833;DHT22;30569;51.252;9.830;2022-11-03T11:55:50;14.30;99.90
44833;DHT22;30569;51.252;9.830;2022-11-03T11:58:21;14.20;99.90
44833;DHT22;30569;51.252;9.830;2022-11-03T12:00:56;16.80;99.90
44833;DHT22;30569;51.252;9.830;2022-11-03T12:03:27;15.30;99.90
44833;DHT22;30569;51.252;9.830;2022-11-03T12:05:53;14.40;99.90
44833;DHT22;30569;51.252;9.830;2022-11-03T12:08:23;15.10;99.90
44833;DHT22;30569;51.252;9.830;2022-11-03T12:10:54;15.30;99.90
44833;DHT22;30569;51.252;9.830;2022-11-03T12:13:48;14.70;99.90
44833;DHT22;30569;51.252;9.830;2022-11-03T12:16:34;14.60;99.90
44833;DHT22;30569;51.252;9.830;2022-11-03T12:22:11;14.50;99.90
44833;DHT22;30569;51.252;9.830;2022-11-03T12:24:51;14.90;99.90
44833;DHT22;30569;51.252;9.830;2022-11-03T12:27:39;14.90;99.90
44833;DHT22;30569;51.252;9.830;2022-11-03T12:30:11;15.20;99.90
44833;DHT22;30569;51.252;9.830;2022-11-03T12:32:38;15.40;99.90
44833;DHT22;30569;51.252;9.830;2022-11-03T12:35:05;15.50;99.90
44833;DHT22;30569;51.252;9.830;2022-11-03T12:37:32;14.90;99.90
44833;DHT22;30569;51.252;9.830;2022-11-03T12:39:58;14.90;99.90
44833;DHT22;30569;51.252;9.830;2022-11-03T12:42:23;15.10;99.90
44833;DHT22;30569;51.252;9.830;2022-11-03T12:44:49;15.10;99.90
44833;DHT22;30569;51.252;9.830;2022-11-03T12:47:15;15.10;99.90
44833;DHT22;30569;51.252;9.830;2022-11-03T12:49:40;15.40;99.90
44833;DHT22;30569;51.252;9.830;2022-11-03T12:52:06;15.10;99.90
44833;DHT22;30569;51.252;9.830;2022-11-03T12:54:32;14.90;99.90
44833;DHT22;30569;51.252;9.830;2022-11-03T12:56:59;14.70;99.90
44833;DHT22;30569;51.252;9.830;2022-11-03T12:59:24;15.20;99.90
44833;DHT22;30569;51.252;9.830;2022-11-03T13:01:50;15.20;99.90
44833;DHT22;30569;51.252;9.830;2022-11-03T13:04:16;15.10;99.90
44833;DHT22;30569;51.252;9.830;2022-11-03T13:06:41;15.00;99.90
44833;DHT22;30569;51.252;9.830;2022-11-03T13:09:07;14.60;99.90
44833;DHT22;30569;51.252;9.830;2022-11-03T13:11:33;14.90;99.90
44833;DHT22;30569;51.252;9.830;2022-11-03T13:14:17;15.30;99.90
44833;DHT22;30569;51.252;9.830;2022-11-03T13:16:42;15.30;99.90
44833;DHT22;30569;51.252;9.830;2022-11-03T13:19:08;15.00;99.90
44833;DHT22;30569;51.252;9.830;2022-11-03T13:21:35;15.00;99.90
44833;DHT22;30569;51.252;9.830;2022-11-03T13:24:00;14.20;99.90
44833;DHT22;30569;51.252;9.830;2022-11-03T13:26:26;14.10;99.90
44833;DHT22;30569;51.252;9.830;2022-11-03T13:28:52;14.20;99.90
44833;DHT22;30569;51.252;9.830;2022-11-03T13:31:17;14.40;99.90
44833;DHT22;30569;51.252;9.830;2022-11-03T13:33:43;14.80;99.90
44833;DHT22;30569;51.252;9.830;2022-11-03T13:36:08;14.40;99.90
44833;DHT22;30569;51.252;9.830;2022-11-03T13:38:34;14.20;99.90
44833;DHT22;30569;51.252;9.830;2022-11-03T13:40:59;14.50;99.90
44833;DHT22;30569;51.252;9.830;2022-11-03T13:43:25;14.00;99.90
44833;DHT22;30569;51.252;9.830;2022-11-03T13:45:50;13.70;99.90
44833;DHT22;30569;51.252;9.830;2022-11-03T13:50:44;14.20;99.90
44833;DHT22;30569;51.252;9.830;2022-11-03T13:53:09;14.10;99.90
44833;DHT22;30569;51.252;9.830;2022-11-03T13:55:35;14.50;99.90
44833;DHT22;30569;51.252;9.830;2022-11-03T14:00:26;14.60;99.90
44833;DHT22;30569;51.252;9.830;2022-11-03T14:02:52;14.30;99.90
44833;DHT22;30569;51.252;9.830;2022-11-03T14:05:17;14.40;99.90
44833;DHT22;30569;51.252;9.830;2022-11-03T14:07:43;15.40;99.90
44833;DHT22;30569;51.252;9.830;2022-11-03T14:10:09;14.60;99.90
44833;DHT22;30569;51.252;9.830;2022-11-03T14:12:35;14.50;99.90
44833;DHT22;30569;51.252;9.830;2022-11-03T14:15:05;14.90;99.90
44833;DHT22;30569;51.252;9.830;2022-11-03T14:17:31;14.70;99.90
44833;DHT22;30569;51.252;9.830;2022-11-03T14:19:57;14.90;99.90
44833;DHT22;30569;51.252;9.830;2022-11-03T14:22:23;14.90;99.90
44833;DHT22;30569;51.252;9.830;2022-11-03T14:24:49;14.80;99.90
44833;DHT22;30569;51.252;9.830;2022-11-03T14:27:17;14.80;99.90
44833;DHT22;30569;51.252;9.830;2022-11-03T14:29:43;16.10;99.90
44833;DHT22;30569;51.252;9.830;2022-11-03T14:32:09;14.70;99.90
44833;DHT22;30569;51.252;9.830;2022-11-03T14:34:35;14.90;99.90
44833;DHT22;30569;51.252;9.830;2022-11-03T14:37:01;14.90;99.90
44833;DHT22;30569;51.252;9.830;2022-11-03T14:39:26;14.90;99.90
44833;DHT22;30569;51.252;9.830;2022-11-03T14:44:28;14.80;99.90
44833;DHT22;30569;51.252;9.830;2022-11-03T14:46:54;14.70;99.90
44833;DHT22;30569;51.252;9.830;2022-11-03T14:49:20;14.50;99.90
44833;DHT22;30569;51.252;9.830;2022-11-03T14:51:45;14.00;99.90
44833;DHT22;30569;51.252;9.830;2022-11-03T14:54:11;14.20;99.90
44833;DHT22;30569;51.252;9.830;2022-11-03T14:56:36;14.10;99.90
44833;DHT22;30569;51.252;9.830;2022-11-03T14:59:02;14.20;99.90
44833;DHT22;30569;51.252;9.830;2022-11-03T15:01:27;14.30;99.90
44833;DHT22;30569;51.252;9.830;2022-11-03T15:03:53;13.80;99.90
44833;DHT22;30569;51.252;9.830;2022-11-03T15:06:18;13.90;99.90
44833;DHT22;30569;51.252;9.830;2022-11-03T15:08:44;13.40;99.90
44833;DHT22;30569;51.252;9.830;2022-11-03T15:11:10;13.70;99.90
44833;DHT22;30569;51.252;9.830;2022-11-03T15:13:36;13.80;99.90
44833;DHT22;30569;51.252;9.830;2022-11-03T15:16:02;14.00;99.90
44833;DHT22;30569;51.252;9.830;2022-11-03T15:20:55;13.40;99.90
44833;DHT22;30569;51.252;9.830;2022-11-03T15:23:20;13.60;99.90
44833;DHT22;30569;51.252;9.830;2022-11-03T15:28:12;13.40;99.90
44833;DHT22;30569;51.252;9.830;2022-11-03T15:30:38;13.20;99.90
44833;DHT22;30569;51.252;9.830;2022-11-03T15:33:03;13.10;99.90
44833;DHT22;30569;51.252;9.830;2022-11-03T15:35:29;12.40;99.90
44833;DHT22;30569;51.252;9.830;2022-11-03T15:37:54;12.50;99.90
44833;DHT22;30569;51.252;9.830;2022-11-03T15:40:23;12.60;99.90
44833;DHT22;30569;51.252;9.830;2022-11-03T15:42:49;12.10;99.90
44833;DHT22;30569;51.252;9.830;2022-11-03T15:47:40;11.90;99.90
44833;DHT22;30569;51.252;9.830;2022-11-03T15:50:07;11.90;99.90
44833;DHT22;30569;51.252;9.830;2022-11-03T15:52:33;11.70;99.90
44833;DHT22;30569;51.252;9.830;2022-11-03T15:57:25;11.80;99.90
44833;DHT22;30569;51.252;9.830;2022-11-03T15:59:50;12.10;99.90
44833;DHT22;30569;51.252;9.830;2022-11-03T16:02:16;12.00;99.90
44833;DHT22;30569;51.252;9.830;2022-11-03T16:04:42;12.50;99.90
44833;DHT22;30569;51.252;9.830;2022-11-03T16:07:07;12.60;99.90
44833;DHT22;30569;51.252;9.830;2022-11-03T16:09:33;12.10;99.90
44833;DHT22;30569;51.252;9.830;2022-11-03T16:11:59;12.30;99.90
44833;DHT22;30569;51.252;9.830;2022-11-03T16:14:24;12.40;99.90
44833;DHT22;30569;51.252;9.830;2022-11-03T16:16:50;12.40;99.90
44833;DHT22;30569;51.252;9.830;2022-11-03T16:19:15;12.40;99.90
44833;DHT22;30569;51.252;9.830;2022-11-03T16:24:08;12.90;99.90
44833;DHT22;30569;51.252;9.830;2022-11-03T16:26:34;12.90;99.90
44833;DHT22;30569;51.252;9.830;2022-11-03T16:28:59;12.70;99.90
44833;DHT22;30569;51.252;9.830;2022-11-03T16:31:25;12.80;99.90
44833;DHT22;30569;51.252;9.830;2022-11-03T16:33:51;12.70;99.90
44833;DHT22;30569;51.252;9.830;2022-11-03T16:36:17;12.70;99.90
44833;DHT22;30569;51.252;9.830;2022-11-03T16:38:43;12.80;99.90
44833;DHT22;30569;51.252;9.830;2022-11-03T16:41:09;12.90;99.90
44833;DHT22;30569;51.252;9.830;2022-11-03T16:43:35;12.90;99.90
44833;DHT22;30569;51.252;9.830;2022-11-03T16:46:00;12.90;99.90
44833;DHT22;30569;51.252;9.830;2022-11-03T16:48:26;12.70;99.90
44833;DHT22;30569;51.252;9.830;2022-11-03T16:50:52;12.70;99.90
44833;DHT22;30569;51.252;9.830;2022-11-03T16:55:45;12.80;99.90
44833;DHT22;30569;51.252;9.830;2022-11-03T16:58:12;12.60;99.90
44833;DHT22;30569;51.252;9.830;2022-11-03T17:00:38;12.60;99.90
44833;DHT22;30569;51.252;9.830;2022-11-03T17:03:03;12.40;99.90
44833;DHT22;30569;51.252;9.830;2022-11-03T17:05:29;11.90;99.90
44833;DHT22;30569;51.252;9.830;2022-11-03T17:07:54;12.00;99.90
44833;DHT22;30569;51.252;9.830;2022-11-03T17:10:21;12.00;99.90
44833;DHT22;30569;51.252;9.830;2022-11-03T17:12:47;11.90;99.90
44833;DHT22;30569;51.252;9.830;2022-11-03T17:15:13;12.10;99.90
44833;DHT22;30569;51.252;9.830;2022-11-03T17:17:38;12.30;99.90
44833;DHT22;30569;51.252;9.830;2022-11-03T17:20:05;12.40;99.90
44833;DHT22;30569;51.252;9.830;2022-11-03T17:22:30;12.40;99.90
44833;DHT22;30569;51.252;9.830;2022-11-03T17:24:56;12.40;99.90
44833;DHT22;30569;51.252;9.830;2022-11-03T17:27:23;12.50;99.90
44833;DHT22;30569;51.252;9.830;2022-11-03T17:29:56;12.50;99.90
44833;DHT22;30569;51.252;9.830;2022-11-03T17:32:32;12.50;99.90
44833;DHT22;30569;51.252;9.830;2022-11-03T17:34:59;12.60;99.90
44833;DHT22;30569;51.252;9.830;2022-11-03T17:37:25;12.50;99.90
44833;DHT22;30569;51.252;9.830;2022-11-03T17:39:51;12.60;99.90
44833;DHT22;30569;51.252;9.830;2022-11-03T17:42:22;12.70;99.90
44833;DHT22;30569;51.252;9.830;2022-11-03T17:44:50;12.10;99.90
44833;DHT22;30569;51.252;9.830;2022-11-03T17:47:17;12.20;99.90
44833;DHT22;30569;51.252;9.830;2022-11-03T17:49:44;12.10;99.90
44833;DHT22;30569;51.252;9.830;2022-11-03T17:52:14;12.30;99.90
44833;DHT22;30569;51.252;9.830;2022-11-03T17:54:41;11.80;99.90
44833;DHT22;30569;51.252;9.830;2022-11-03T17:57:14;11.70;99.90